Time;durP1;ratioP1;P1;durP2;ratioP2;P2;SDS_P1;SDS_P2;PMS_P1;PMS_P2;Temp;Humidity;BMP_temperature;BMP_pressure;BME280_temperature;BME280_humidity;BME280_pressure;Samples;Min_cycle;Max_cycle;Signal;HPM_P1;HPM_P2
2023/09/08 00:02:08;;;;;;;11.50;9.10;;;16.60;99.90;;;;;;5009186;28;20211;-55
2023/09/08 00:04:34;;;;;;;12.50;8.83;;;16.60;99.90;;;;;;5009710;28;20181;-55
2023/09/08 00:07:00;;;;;;;13.07;8.93;;;16.60;99.90;;;;;;5008699;28;20889;-56
2023/09/08 00:09:25;;;;;;;11.60;8.93;;;16.60;99.90;;;;;;5007546;28;20726;-56
2023/09/08 00:11:52;;;;;;;11.93;9.17;;;16.50;99.90;;;;;;5004821;28;20180;-54
2023/09/08 00:14:17;;;;;;;9.80;8.67;;;16.50;99.90;;;;;;5004089;28;20188;-56
2023/09/08 00:16:43;;;;;;;10.30;9.20;;;16.40;99.90;;;;;;5004688;28;21235;-56
2023/09/08 00:19:10;;;;;;;10.80;9.63;;;16.40;99.90;;;;;;5002702;28;20172;-55
2023/09/08 00:21:36;;;;;;;10.50;8.63;;;16.40;99.90;;;;;;5006795;28;20457;-55
2023/09/08 00:24:03;;;;;;;12.67;10.00;;;16.40;99.90;;;;;;5008538;28;20431;-55
2023/09/08 00:26:29;;;;;;;11.93;9.10;;;16.30;99.90;;;;;;5008665;28;20510;-55
2023/09/08 00:28:55;;;;;;;14.27;9.37;;;16.30;99.90;;;;;;5006329;28;20915;-56
2023/09/08 00:31:20;;;;;;;11.80;8.63;;;16.30;99.90;;;;;;5005179;28;20191;-55
2023/09/08 00:33:46;;;;;;;13.13;10.00;;;16.30;99.90;;;;;;5004472;28;20672;-54
2023/09/08 00:36:12;;;;;;;12.07;8.77;;;16.20;99.90;;;;;;5005850;28;20234;-55
2023/09/08 00:38:37;;;;;;;11.40;9.10;;;16.20;99.90;;;;;;5005870;28;20176;-55
2023/09/08 00:41:05;;;;;;;11.43;9.40;;;16.20;99.90;;;;;;4991077;28;22095;-54
2023/09/08 00:43:30;;;;;;;10.80;8.70;;;16.20;99.90;;;;;;4994817;28;20180;-55
2023/09/08 00:45:58;;;;;;;11.00;8.77;;;16.10;99.90;;;;;;4994159;28;20851;-55
2023/09/08 00:48:25;;;;;;;10.37;8.63;;;16.10;99.90;;;;;;4997741;28;20184;-56
2023/09/08 00:50:50;;;;;;;10.53;8.43;;;16.20;99.90;;;;;;4992625;28;20509;-56
2023/09/08 00:53:17;;;;;;;13.43;8.03;;;16.10;99.90;;;;;;5000284;28;20440;-55
2023/09/08 00:55:43;;;;;;;10.30;8.90;;;16.10;99.90;;;;;;4991054;28;20295;-55
2023/09/08 00:58:09;;;;;;;11.97;9.20;;;16.10;99.90;;;;;;4995674;28;20481;-57
2023/09/08 01:00:35;;;;;;;15.87;8.93;;;16.10;99.90;;;;;;4993970;28;20430;-55
2023/09/08 01:03:02;;;;;;;10.57;8.20;;;16.10;99.90;;;;;;5001924;28;20415;-56
2023/09/08 01:05:28;;;;;;;11.17;9.00;;;16.00;99.90;;;;;;5003127;28;20187;-55
2023/09/08 01:07:55;;;;;;;9.50;8.50;;;16.00;99.90;;;;;;5002820;28;20438;-56
2023/09/08 01:10:21;;;;;;;10.80;8.60;;;16.00;99.90;;;;;;5002970;28;20185;-55
2023/09/08 01:12:46;;;;;;;13.70;8.93;;;16.00;99.90;;;;;;4993881;28;20535;-55
2023/09/08 01:15:12;;;;;;;9.53;8.60;;;15.90;99.90;;;;;;4994604;28;20679;-55
2023/09/08 01:17:38;;;;;;;11.47;8.87;;;15.90;99.90;;;;;;4992217;28;20212;-56
2023/09/08 01:20:11;;;;;;;12.77;8.83;;;15.80;99.90;;;;;;4996341;28;20180;-55
2023/09/08 01:23:10;;;;;;;12.53;9.13;;;15.80;99.90;;;;;;4997787;28;20180;-55
2023/09/08 01:25:46;;;;;;;11.40;8.37;;;15.80;99.90;;;;;;4997200;28;20510;-55
2023/09/08 01:28:12;;;;;;;10.63;8.63;;;15.80;99.90;;;;;;4995316;28;22039;-55
2023/09/08 01:30:39;;;;;;;11.43;8.50;;;15.70;99.90;;;;;;4993229;28;20599;-55
2023/09/08 01:33:06;;;;;;;13.77;8.43;;;15.70;99.90;;;;;;4993125;28;20471;-54
2023/09/08 01:35:32;;;;;;;10.30;7.97;;;15.70;99.90;;;;;;4991354;28;20500;-55
2023/09/08 01:37:58;;;;;;;13.73;9.53;;;15.70;99.90;;;;;;4989773;28;20474;-55
2023/09/08 01:40:23;;;;;;;12.63;8.17;;;15.60;99.90;;;;;;4997904;28;21401;-55
2023/09/08 01:42:49;;;;;;;10.43;8.00;;;15.60;99.90;;;;;;4996446;28;20179;-55
2023/09/08 01:45:15;;;;;;;10.10;8.80;;;15.60;99.90;;;;;;4992478;28;20184;-55
2023/09/08 01:47:40;;;;;;;11.00;8.63;;;15.60;99.90;;;;;;4994622;28;20303;-56
2023/09/08 01:50:06;;;;;;;11.60;8.10;;;15.60;99.90;;;;;;4998008;28;20200;-55
2023/09/08 01:52:32;;;;;;;13.17;8.83;;;15.50;99.90;;;;;;5013065;28;20177;-55
2023/09/08 01:54:57;;;;;;;13.30;9.00;;;15.50;99.90;;;;;;5010331;28;21004;-55
2023/09/08 01:57:23;;;;;;;10.57;7.97;;;15.50;99.90;;;;;;5002876;28;20783;-55
2023/09/08 01:59:49;;;;;;;15.13;8.70;;;15.50;99.90;;;;;;5005983;28;20256;-55
2023/09/08 02:02:14;;;;;;;9.47;8.47;;;15.50;99.90;;;;;;5010401;28;20172;-54
2023/09/08 02:04:40;;;;;;;12.03;8.43;;;15.40;99.90;;;;;;5001700;28;20218;-55
2023/09/08 02:07:06;;;;;;;10.47;8.37;;;15.40;99.90;;;;;;5004060;28;20262;-55
2023/09/08 02:09:33;;;;;;;9.50;8.50;;;15.30;99.90;;;;;;5009952;28;20180;-52
2023/09/08 02:11:58;;;;;;;11.30;8.57;;;15.30;99.90;;;;;;5007105;28;20398;-54
2023/09/08 02:14:24;;;;;;;10.10;7.73;;;15.30;99.90;;;;;;5010482;28;21066;-56
2023/09/08 02:16:50;;;;;;;15.70;9.30;;;15.20;99.90;;;;;;5009280;28;20203;-55
2023/09/08 02:19:15;;;;;;;11.00;8.90;;;15.20;99.90;;;;;;5009586;28;20211;-55
2023/09/08 02:21:41;;;;;;;12.03;8.40;;;15.20;99.90;;;;;;5009841;28;20192;-54
2023/09/08 02:24:06;;;;;;;12.40;9.10;;;15.10;99.90;;;;;;5007863;28;20216;-56
2023/09/08 02:26:33;;;;;;;11.23;8.27;;;15.10;99.90;;;;;;5007863;28;20211;-55
2023/09/08 02:28:59;;;;;;;9.30;7.90;;;15.10;99.90;;;;;;5010616;28;20284;-55
2023/09/08 02:31:26;;;;;;;11.00;8.73;;;15.10;99.90;;;;;;5005842;28;20534;-55
2023/09/08 02:33:51;;;;;;;11.47;8.70;;;15.10;99.90;;;;;;5010386;28;20924;-54
2023/09/08 02:36:17;;;;;;;12.00;8.40;;;15.10;99.90;;;;;;5009085;28;20456;-55
2023/09/08 02:38:43;;;;;;;10.20;8.00;;;15.00;99.90;;;;;;5007058;28;20172;-55
2023/09/08 02:41:08;;;;;;;10.60;8.10;;;15.00;99.90;;;;;;5008807;28;20177;-54
2023/09/08 02:43:34;;;;;;;12.53;8.87;;;15.00;99.90;;;;;;5009578;28;20181;-56
2023/09/08 02:45:59;;;;;;;12.43;8.63;;;15.00;99.90;;;;;;5008839;28;20196;-56
2023/09/08 02:48:25;;;;;;;15.67;9.57;;;15.00;99.90;;;;;;5011250;28;20234;-56
2023/09/08 02:50:51;;;;;;;11.07;8.60;;;15.00;99.90;;;;;;5006527;28;20283;-55
2023/09/08 02:53:17;;;;;;;10.07;7.63;;;15.00;99.90;;;;;;5011007;28;20264;-55
2023/09/08 02:55:42;;;;;;;9.63;8.40;;;15.00;99.90;;;;;;5008792;28;20210;-55
2023/09/08 02:58:08;;;;;;;14.40;8.20;;;15.00;99.90;;;;;;5009074;28;20208;-55
2023/09/08 03:00:33;;;;;;;10.43;8.60;;;14.90;99.90;;;;;;5011128;28;20204;-56
2023/09/08 03:02:59;;;;;;;10.53;8.83;;;14.90;99.90;;;;;;5008415;28;20238;-55
2023/09/08 03:05:25;;;;;;;12.03;8.47;;;14.90;99.90;;;;;;5010015;28;20177;-55
2023/09/08 03:07:50;;;;;;;10.90;8.60;;;14.90;99.90;;;;;;5007678;28;20180;-56
2023/09/08 03:10:16;;;;;;;12.30;9.00;;;14.90;99.90;;;;;;5011139;28;20883;-55
2023/09/08 03:12:41;;;;;;;15.00;9.70;;;14.80;99.90;;;;;;5008321;28;20179;-55
2023/09/08 03:15:07;;;;;;;15.53;9.17;;;14.80;99.90;;;;;;5008014;28;20180;-55
2023/09/08 03:17:34;;;;;;;14.93;9.43;;;14.80;99.90;;;;;;5009347;28;20291;-56
2023/09/08 03:19:59;;;;;;;12.40;8.80;;;14.80;99.90;;;;;;5004480;28;20268;-55
2023/09/08 03:22:25;;;;;;;11.40;9.10;;;14.80;99.90;;;;;;5010186;28;20527;-55
2023/09/08 03:24:51;;;;;;;12.53;8.77;;;14.80;99.90;;;;;;5010245;28;20645;-55
2023/09/08 03:27:16;;;;;;;14.87;8.50;;;14.70;99.90;;;;;;5003749;28;20307;-55
2023/09/08 03:29:42;;;;;;;10.60;8.37;;;14.70;99.90;;;;;;5006933;28;20172;-54
2023/09/08 03:32:07;;;;;;;14.17;9.77;;;14.70;99.90;;;;;;5005900;28;20212;-55
2023/09/08 03:34:33;;;;;;;12.07;8.23;;;14.70;99.90;;;;;;5003563;28;20239;-54
2023/09/08 03:36:59;;;;;;;11.60;8.77;;;14.70;99.90;;;;;;4999056;28;20696;-55
2023/09/08 03:39:25;;;;;;;11.70;9.27;;;14.70;99.90;;;;;;5008269;28;20450;-58
2023/09/08 03:41:50;;;;;;;9.93;8.53;;;14.70;99.90;;;;;;5002807;28;20272;-55
2023/09/08 03:44:16;;;;;;;13.83;9.30;;;14.60;99.90;;;;;;5006533;28;20180;-56
2023/09/08 03:46:41;;;;;;;11.90;8.40;;;14.60;99.90;;;;;;5007028;28;20206;-56
2023/09/08 03:49:08;;;;;;;11.17;9.33;;;14.60;99.90;;;;;;5005040;28;20246;-56
2023/09/08 03:51:33;;;;;;;10.80;8.70;;;14.60;99.90;;;;;;5006049;28;20270;-55
2023/09/08 03:53:59;;;;;;;14.07;9.37;;;14.60;99.90;;;;;;5007948;28;20427;-55
2023/09/08 03:56:25;;;;;;;12.30;8.47;;;14.50;99.90;;;;;;5005572;28;20251;-55
2023/09/08 03:58:50;;;;;;;11.83;8.47;;;14.50;99.90;;;;;;5002454;28;20238;-55
2023/09/08 04:01:16;;;;;;;13.33;8.87;;;14.50;99.90;;;;;;5003565;28;20188;-56
2023/09/08 04:03:41;;;;;;;12.07;8.53;;;14.50;99.90;;;;;;5008771;28;20206;-55
2023/09/08 04:06:09;;;;;;;10.33;8.00;;;14.50;99.90;;;;;;5003042;28;20204;-60
2023/09/08 04:08:34;;;;;;;11.20;8.30;;;14.40;99.90;;;;;;5001319;28;20215;-59
2023/09/08 04:11:00;;;;;;;13.53;9.07;;;14.40;99.90;;;;;;5008250;28;20485;-57
2023/09/08 04:13:25;;;;;;;10.60;8.57;;;14.40;99.90;;;;;;5006162;28;20196;-58
2023/09/08 04:15:51;;;;;;;11.67;8.67;;;14.40;99.90;;;;;;5006472;28;20212;-59
2023/09/08 04:18:16;;;;;;;17.40;8.67;;;14.40;99.90;;;;;;5007670;28;20220;-59
2023/09/08 04:20:43;;;;;;;11.63;9.37;;;14.40;99.90;;;;;;5005992;28;20879;-59
2023/09/08 04:23:08;;;;;;;10.40;8.40;;;14.30;99.90;;;;;;5003794;28;20641;-59
2023/09/08 04:25:34;;;;;;;10.47;8.67;;;14.30;99.90;;;;;;4995259;28;20436;-61
2023/09/08 04:28:00;;;;;;;16.30;8.60;;;14.30;99.90;;;;;;5011922;28;20574;-60
2023/09/08 04:30:25;;;;;;;10.57;8.87;;;14.30;99.90;;;;;;5002625;28;20180;-59
2023/09/08 04:32:51;;;;;;;11.63;9.13;;;14.30;99.90;;;;;;4996709;28;20637;-58
2023/09/08 04:35:16;;;;;;;10.33;7.97;;;14.30;99.90;;;;;;4994784;28;20227;-58
2023/09/08 04:37:42;;;;;;;8.90;7.73;;;14.30;99.90;;;;;;4997856;28;20885;-59
2023/09/08 04:40:08;;;;;;;13.73;8.60;;;14.20;99.90;;;;;;4997598;28;20599;-60
2023/09/08 04:42:33;;;;;;;15.40;9.10;;;14.20;99.90;;;;;;4999616;28;20656;-60
2023/09/08 04:44:59;;;;;;;11.87;9.33;;;14.20;99.90;;;;;;4997535;28;20547;-59
2023/09/08 04:47:25;;;;;;;13.80;8.90;;;14.20;99.90;;;;;;4998904;28;20200;-58
2023/09/08 04:49:50;;;;;;;9.67;8.67;;;14.10;99.90;;;;;;5002580;28;20176;-59
2023/09/08 04:52:16;;;;;;;9.13;7.53;;;14.10;99.90;;;;;;4995924;28;20216;-58
2023/09/08 04:54:41;;;;;;;16.43;9.80;;;14.10;99.90;;;;;;5000556;28;20236;-56
2023/09/08 04:57:07;;;;;;;15.27;9.10;;;14.10;99.90;;;;;;5002596;28;20212;-59
2023/09/08 04:59:33;;;;;;;10.43;8.23;;;14.10;99.90;;;;;;5004398;28;20172;-56
2023/09/08 05:01:59;;;;;;;12.83;9.67;;;14.10;99.90;;;;;;4996807;28;20598;-56
2023/09/08 05:04:24;;;;;;;13.17;8.70;;;14.10;99.90;;;;;;4994101;28;20172;-58
2023/09/08 05:06:50;;;;;;;17.17;8.27;;;14.10;99.90;;;;;;5006903;28;20489;-59
2023/09/08 05:09:15;;;;;;;10.37;8.77;;;14.10;99.90;;;;;;5005502;28;20635;-59
2023/09/08 05:11:41;;;;;;;16.53;10.30;;;14.10;99.90;;;;;;5003789;28;20267;-59
2023/09/08 05:14:07;;;;;;;9.70;8.60;;;14.10;99.90;;;;;;5003344;28;20180;-59
2023/09/08 05:16:37;;;;;;;21.30;9.77;;;14.00;99.90;;;;;;5009243;28;20208;-59
2023/09/08 05:19:04;;;;;;;11.20;9.10;;;14.00;99.90;;;;;;5010941;28;20173;-60
2023/09/08 05:21:31;;;;;;;11.87;9.30;;;14.00;99.90;;;;;;5007917;28;20431;-59
2023/09/08 05:23:56;;;;;;;20.63;9.30;;;14.00;99.90;;;;;;5010836;28;20427;-59
2023/09/08 05:26:22;;;;;;;14.93;9.40;;;14.00;99.90;;;;;;5008658;28;20447;-58
2023/09/08 05:28:48;;;;;;;14.40;8.77;;;14.00;99.90;;;;;;5006600;28;20170;-60
2023/09/08 05:31:13;;;;;;;15.93;9.00;;;14.00;99.90;;;;;;5009881;28;20183;-58
2023/09/08 05:33:39;;;;;;;13.20;9.73;;;14.10;99.90;;;;;;5007704;28;21585;-58
2023/09/08 05:36:05;;;;;;;12.57;9.37;;;14.10;99.90;;;;;;5001433;28;20697;-58
2023/09/08 05:38:30;;;;;;;10.17;8.30;;;14.10;99.90;;;;;;5010750;28;20227;-58
2023/09/08 05:40:56;;;;;;;17.83;9.10;;;14.20;99.90;;;;;;5014400;28;20208;-59
2023/09/08 05:43:25;;;;;;;13.63;9.20;;;14.20;99.90;;;;;;5005643;28;20232;-58
2023/09/08 05:45:50;;;;;;;12.27;9.47;;;14.20;99.90;;;;;;5009331;28;20212;-59
2023/09/08 05:48:16;;;;;;;11.80;8.50;;;14.30;99.90;;;;;;5005376;28;20911;-58
2023/09/08 05:50:42;;;;;;;13.53;9.13;;;14.30;99.90;;;;;;5010636;28;20263;-58
2023/09/08 05:53:08;;;;;;;12.47;9.03;;;14.40;99.90;;;;;;5008370;28;20549;-58
2023/09/08 05:55:33;;;;;;;15.17;8.33;;;14.40;99.90;;;;;;5009176;28;20434;-58
2023/09/08 05:57:59;;;;;;;12.00;9.07;;;14.40;99.90;;;;;;4999123;28;20225;-59
2023/09/08 06:00:24;;;;;;;13.17;8.77;;;14.50;99.90;;;;;;5006434;28;20183;-59
2023/09/08 06:02:50;;;;;;;12.47;9.60;;;14.50;99.90;;;;;;5005095;28;20172;-59
2023/09/08 06:05:16;;;;;;;15.73;10.30;;;14.50;99.90;;;;;;5004992;28;20219;-59
2023/09/08 06:07:41;;;;;;;14.73;10.03;;;14.60;99.90;;;;;;5005545;28;20598;-59
2023/09/08 06:10:07;;;;;;;12.10;9.40;;;14.70;99.90;;;;;;5003145;28;20238;-60
2023/09/08 06:12:33;;;;;;;11.60;9.70;;;14.70;99.90;;;;;;5005372;28;20525;-59
2023/09/08 06:14:58;;;;;;;11.50;9.23;;;14.90;99.90;;;;;;5005448;28;20443;-59
2023/09/08 06:17:24;;;;;;;11.87;9.67;;;14.90;99.90;;;;;;5008689;28;20569;-59
2023/09/08 06:19:50;;;;;;;10.33;8.40;;;15.00;99.90;;;;;;5003199;28;20177;-59
2023/09/08 06:22:15;;;;;;;12.33;9.30;;;15.10;99.90;;;;;;5002040;28;20851;-60
2023/09/08 06:24:42;;;;;;;16.27;9.50;;;15.20;99.90;;;;;;5005367;28;20189;-59
2023/09/08 06:27:08;;;;;;;11.80;9.10;;;15.30;99.90;;;;;;5003719;28;20200;-59
2023/09/08 06:29:33;;;;;;;13.03;9.47;;;15.30;99.90;;;;;;5001183;28;20512;-55
2023/09/08 06:31:59;;;;;;;14.30;9.77;;;15.40;99.90;;;;;;4994728;28;20216;-58
2023/09/08 06:34:24;;;;;;;18.73;10.47;;;15.40;99.90;;;;;;4998328;28;20177;-59
2023/09/08 06:36:50;;;;;;;11.53;9.03;;;15.50;99.90;;;;;;5003554;28;20204;-60
2023/09/08 06:39:15;;;;;;;14.97;10.93;;;15.50;99.90;;;;;;5004190;28;20216;-58
2023/09/08 06:41:41;;;;;;;12.43;10.20;;;15.60;99.90;;;;;;5006245;28;20177;-58
2023/09/08 06:44:06;;;;;;;28.17;10.70;;;15.60;99.90;;;;;;5001948;28;20176;-58
2023/09/08 06:46:32;;;;;;;19.23;10.13;;;15.70;99.90;;;;;;5001859;28;20196;-59
2023/09/08 06:48:58;;;;;;;15.70;10.67;;;15.70;99.90;;;;;;5003038;28;20680;-59
2023/09/08 06:51:24;;;;;;;20.97;9.47;;;15.80;99.90;;;;;;5004382;28;20311;-59
2023/09/08 06:53:56;;;;;;;12.90;9.13;;;15.90;99.90;;;;;;5004180;28;20636;-59
2023/09/08 06:56:22;;;;;;;12.90;9.40;;;16.00;99.90;;;;;;5003833;28;20962;-59
2023/09/08 06:58:47;;;;;;;13.00;9.50;;;16.00;99.90;;;;;;5009463;28;20478;-59
2023/09/08 07:01:13;;;;;;;11.43;9.33;;;16.10;99.90;;;;;;4999933;28;20181;-59
2023/09/08 07:03:39;;;;;;;22.10;10.77;;;16.20;99.90;;;;;;5003255;28;20182;-59
2023/09/08 07:06:04;;;;;;;16.40;12.57;;;16.30;99.90;;;;;;5006002;28;20676;-59
2023/09/08 07:08:30;;;;;;;16.67;12.10;;;16.40;99.90;;;;;;5000684;28;20196;-59
2023/09/08 07:10:55;;;;;;;15.93;11.27;;;16.40;99.90;;;;;;5001272;28;20548;-59
2023/09/08 07:13:21;;;;;;;16.43;11.43;;;16.50;99.90;;;;;;5001095;28;20223;-58
2023/09/08 07:15:47;;;;;;;18.13;11.67;;;16.60;99.90;;;;;;5004593;28;20744;-59
2023/09/08 07:18:12;;;;;;;20.80;14.83;;;16.60;99.90;;;;;;5005117;28;20196;-58
2023/09/08 07:20:38;;;;;;;18.60;13.93;;;16.70;99.90;;;;;;5001825;28;20184;-59
2023/09/08 07:23:04;;;;;;;17.10;12.00;;;16.80;99.90;;;;;;5004495;28;20198;-58
2023/09/08 07:25:29;;;;;;;18.83;12.40;;;16.80;99.90;;;;;;5005021;28;20215;-59
2023/09/08 07:27:55;;;;;;;17.07;11.90;;;16.90;99.90;;;;;;5004841;28;20176;-59
2023/09/08 07:30:21;;;;;;;17.60;10.43;;;17.00;99.90;;;;;;5001377;28;20272;-59
2023/09/08 07:32:46;;;;;;;16.40;10.87;;;17.10;99.90;;;;;;4997235;28;20188;-57
2023/09/08 07:35:14;;;;;;;14.20;9.97;;;17.20;99.90;;;;;;5003205;28;21000;-59
2023/09/08 07:37:43;;;;;;;14.70;11.07;;;17.30;99.90;;;;;;4995258;28;20294;-58
2023/09/08 07:40:10;;;;;;;13.63;10.50;;;17.40;99.90;;;;;;4999592;28;20431;-59
2023/09/08 07:42:35;;;;;;;14.07;10.07;;;17.50;99.90;;;;;;4998327;28;20427;-58
2023/09/08 07:45:01;;;;;;;12.00;10.10;;;17.60;99.90;;;;;;4996741;28;20516;-59
2023/09/08 07:47:26;;;;;;;12.97;10.10;;;17.70;99.90;;;;;;5004207;28;20291;-59
2023/09/08 07:50:12;;;;;;;16.03;10.07;;;17.80;99.90;;;;;;4998440;28;20192;-56
2023/09/08 07:52:37;;;;;;;13.80;10.10;;;17.90;99.90;;;;;;5001280;28;20188;-55
2023/09/08 07:55:03;;;;;;;11.83;9.80;;;18.00;99.90;;;;;;4995827;28;20439;-56
2023/09/08 07:57:29;;;;;;;11.00;9.30;;;18.10;99.90;;;;;;5002077;28;20203;-56
2023/09/08 07:59:54;;;;;;;13.83;9.07;;;18.20;99.90;;;;;;5000094;28;20184;-56
2023/09/08 08:02:20;;;;;;;15.33;9.90;;;18.30;99.90;;;;;;4999584;28;20218;-56
2023/09/08 08:04:46;;;;;;;10.93;9.47;;;18.40;99.90;;;;;;5001870;28;20780;-55
2023/09/08 08:07:11;;;;;;;13.43;9.10;;;18.50;99.90;;;;;;5006264;28;20228;-57
2023/09/08 08:09:37;;;;;;;12.07;9.83;;;18.60;99.90;;;;;;4994367;28;20195;-56
2023/09/08 08:12:02;;;;;;;11.97;9.10;;;18.70;99.90;;;;;;4999729;28;20700;-56
2023/09/08 08:14:28;;;;;;;14.37;9.40;;;18.80;99.90;;;;;;4994045;28;20184;-56
2023/09/08 08:16:54;;;;;;;11.00;9.40;;;18.90;99.90;;;;;;4990102;28;20207;-56
2023/09/08 08:19:19;;;;;;;13.87;9.67;;;19.00;99.90;;;;;;4997528;28;20191;-56
2023/09/08 08:21:45;;;;;;;14.80;8.80;;;19.20;99.90;;;;;;5003812;28;20177;-56
2023/09/08 08:24:10;;;;;;;14.30;10.43;;;19.20;99.90;;;;;;5002522;28;20256;-56
2023/09/08 08:26:36;;;;;;;15.63;9.90;;;19.40;99.90;;;;;;4992962;28;20199;-56
2023/09/08 08:29:02;;;;;;;13.00;10.07;;;19.50;99.90;;;;;;4989069;28;22159;-57
2023/09/08 08:31:28;;;;;;;14.53;10.07;;;19.60;99.90;;;;;;5000949;28;20183;-56
2023/09/08 08:33:54;;;;;;;18.00;9.73;;;19.70;99.90;;;;;;5007251;28;20437;-55
2023/09/08 08:36:20;;;;;;;14.23;10.70;;;19.90;99.90;;;;;;4995429;28;20452;-55
2023/09/08 08:38:46;;;;;;;14.73;10.20;;;20.00;99.90;;;;;;4995885;28;20501;-60
2023/09/08 08:41:11;;;;;;;19.43;11.93;;;20.10;99.90;;;;;;4997876;28;20184;-59
2023/09/08 08:43:37;;;;;;;18.03;11.33;;;20.30;99.90;;;;;;4991336;28;20175;-63
2023/09/08 08:46:04;;;;;;;16.27;11.93;;;20.40;99.90;;;;;;4990018;28;20207;-59
2023/09/08 08:48:31;;;;;;;16.77;11.80;;;20.60;99.90;;;;;;4995550;28;20187;-60
2023/09/08 08:50:59;;;;;;;13.13;10.80;;;20.70;99.90;;;;;;4987017;28;20525;-59
2023/09/08 08:53:26;;;;;;;15.80;11.13;;;20.80;99.90;;;;;;4997026;28;21131;-59
2023/09/08 08:55:55;;;;;;;11.97;10.13;;;21.00;99.90;;;;;;4996814;28;20504;-59
2023/09/08 08:58:24;;;;;;;13.83;10.43;;;21.20;99.90;;;;;;5003855;28;20471;-59
2023/09/08 09:00:53;;;;;;;15.17;11.00;;;21.30;99.90;;;;;;5006849;28;20447;-59
2023/09/08 09:03:20;;;;;;;14.23;10.53;;;21.50;99.90;;;;;;5005279;28;20521;-59
2023/09/08 09:05:46;;;;;;;11.40;9.93;;;21.70;99.90;;;;;;5003467;28;20474;-59
2023/09/08 09:08:13;;;;;;;14.63;10.40;;;21.90;99.90;;;;;;5006720;28;20438;-59
2023/09/08 09:10:38;;;;;;;14.90;10.67;;;22.10;99.90;;;;;;5006016;28;20427;-58
2023/09/08 09:13:05;;;;;;;10.80;9.57;;;22.30;99.90;;;;;;5000956;28;20500;-59
2023/09/08 09:15:32;;;;;;;13.53;10.00;;;22.50;99.90;;;;;;5002214;28;20168;-60
2023/09/08 09:18:08;;;;;;;13.63;10.40;;;22.70;99.90;;;;;;4995194;28;20497;-59
2023/09/08 09:20:34;;;;;;;15.90;9.43;;;22.80;99.90;;;;;;4998159;28;20438;-59
2023/09/08 09:23:00;;;;;;;9.97;8.80;;;23.00;99.90;;;;;;5002106;28;20461;-58
2023/09/08 09:25:28;;;;;;;12.37;9.00;;;23.20;97.80;;;;;;5002394;28;20432;-58
2023/09/08 09:27:59;;;;;;;10.60;9.47;;;23.40;96.10;;;;;;4996887;28;20192;-58
2023/09/08 09:30:26;;;;;;;12.10;8.97;;;23.60;97.40;;;;;;4994990;28;20428;-59
2023/09/08 09:33:02;;;;;;;15.00;9.03;;;23.80;94.50;;;;;;4992870;28;21085;-58
2023/09/08 09:35:39;;;;;;;12.37;8.90;;;23.90;93.60;;;;;;4994063;28;21028;-59
2023/09/08 09:38:05;;;;;;;11.03;8.77;;;24.00;94.20;;;;;;5006034;28;20468;-60
2023/09/08 09:40:32;;;;;;;9.63;8.40;;;24.20;92.20;;;;;;5004939;28;20427;-60
2023/09/08 09:42:58;;;;;;;11.77;8.70;;;24.40;90.20;;;;;;5003082;28;20649;-59
2023/09/08 09:45:28;;;;;;;13.33;8.77;;;24.50;86.10;;;;;;4997728;28;24669;-60
2023/09/08 09:47:56;;;;;;;11.67;9.33;;;24.70;83.00;;;;;;5002045;28;20799;-60
2023/09/08 09:50:33;;;;;;;15.53;8.03;;;24.80;80.60;;;;;;5002580;28;20554;-61
2023/09/08 09:53:00;;;;;;;13.80;8.80;;;25.00;77.80;;;;;;4997741;28;20483;-59
2023/09/08 09:55:26;;;;;;;10.33;8.40;;;25.10;72.40;;;;;;4998323;28;20431;-59
2023/09/08 09:58:01;;;;;;;10.30;8.60;;;25.10;72.70;;;;;;4991828;28;20490;-59
2023/09/08 10:00:28;;;;;;;11.50;9.37;;;25.20;76.60;;;;;;4996186;28;20993;-59
2023/09/08 10:02:55;;;;;;;11.53;8.53;;;25.40;77.30;;;;;;5005676;28;20466;-58
2023/09/08 10:05:20;;;;;;;11.13;8.07;;;25.60;75.00;;;;;;5004211;28;20430;-59
2023/09/08 10:07:50;;;;;;;11.00;8.53;;;25.70;72.30;;;;;;5002409;28;20493;-59
2023/09/08 10:10:17;;;;;;;11.50;9.50;;;25.70;68.00;;;;;;4999417;28;20689;-59
2023/09/08 10:12:52;;;;;;;21.17;9.67;;;25.70;69.00;;;;;;5002269;28;20435;-57
2023/09/08 10:15:23;;;;;;;13.63;8.33;;;25.90;73.50;;;;;;5001877;28;20460;-60
2023/09/08 10:17:56;;;;;;;10.23;9.00;;;26.00;70.10;;;;;;5004394;28;20470;-59
2023/09/08 10:20:24;;;;;;;11.83;10.63;;;26.00;67.30;;;;;;5005413;28;20463;-59
2023/09/08 10:22:54;;;;;;;10.47;7.70;;;26.10;68.30;;;;;;5007624;28;20969;-59
2023/09/08 10:25:21;;;;;;;11.60;8.10;;;26.10;66.40;;;;;;5003635;28;20427;-59
2023/09/08 10:27:47;;;;;;;11.40;8.30;;;26.20;67.30;;;;;;5008784;28;20583;-59
2023/09/08 10:30:14;;;;;;;10.90;7.93;;;26.30;68.90;;;;;;5000351;28;20449;-58
2023/09/08 10:32:41;;;;;;;10.30;7.90;;;26.50;68.90;;;;;;4997431;28;20184;-59
2023/09/08 10:35:08;;;;;;;10.37;8.37;;;26.60;67.90;;;;;;4997877;28;20177;-58
2023/09/08 10:37:33;;;;;;;8.30;7.50;;;26.80;67.40;;;;;;4999555;28;20212;-59
2023/09/08 10:40:27;;;;;;;8.30;7.50;;;26.90;66.20;;;;;;5003217;28;20168;-59
2023/09/08 10:43:11;;;;;;;13.53;8.03;;;27.00;63.70;;;;;;5002182;28;20184;-60
2023/09/08 10:45:39;;;;;;;10.37;8.03;;;27.10;63.00;;;;;;5002110;28;20172;-60
2023/09/08 10:48:06;;;;;;;8.90;7.40;;;27.00;62.20;;;;;;5001828;28;20736;-59
2023/09/08 10:50:38;;;;;;;9.57;7.43;;;27.00;61.50;;;;;;5006112;28;20191;-59
2023/09/08 10:53:19;;;;;;;9.67;8.20;;;26.90;62.50;;;;;;5002297;28;20203;-60
2023/09/08 10:55:47;;;;;;;11.43;7.03;;;27.00;62.60;;;;;;5001880;28;20652;-59
2023/09/08 10:58:33;;;;;;;8.93;7.90;;;27.10;62.10;;;;;;5002607;28;20260;-58
2023/09/08 11:01:01;;;;;;;14.40;7.07;;;27.10;61.60;;;;;;5002838;28;20173;-59
2023/09/08 11:03:38;;;;;;;10.40;8.40;;;27.20;62.20;;;;;;5002907;28;20191;-60
2023/09/08 11:06:08;;;;;;;10.20;7.87;;;27.30;63.10;;;;;;5005654;28;20200;-59
2023/09/08 11:08:36;;;;;;;9.40;7.77;;;27.40;62.40;;;;;;5003186;28;20656;-61
2023/09/08 11:11:02;;;;;;;9.33;7.73;;;27.50;62.30;;;;;;5003165;28;20195;-60
2023/09/08 11:13:28;;;;;;;10.80;7.40;;;27.60;61.00;;;;;;5003991;28;20172;-60
2023/09/08 11:15:54;;;;;;;9.10;6.80;;;27.70;58.80;;;;;;5001372;28;20210;-59
2023/09/08 11:18:30;;;;;;;9.53;7.30;;;27.70;59.30;;;;;;5003875;28;20208;-60
2023/09/08 11:20:57;;;;;;;9.10;7.23;;;27.80;58.60;;;;;;4999937;28;20262;-59
2023/09/08 11:23:24;;;;;;;10.70;7.10;;;27.90;59.00;;;;;;5004927;28;20176;-60
2023/09/08 11:25:51;;;;;;;8.50;7.40;;;28.00;59.60;;;;;;4998866;28;20779;-59
2023/09/08 11:28:17;;;;;;;10.70;7.73;;;28.20;57.60;;;;;;5001035;28;20180;-59
2023/09/08 11:30:46;;;;;;;9.18;6.72;;;28.20;58.00;;;;;;5001319;28;20668;-59
2023/09/08 11:33:24;;;;;;;8.68;7.78;;;28.40;58.70;;;;;;4996067;28;20773;-59
2023/09/08 11:35:50;;;;;;;10.25;7.10;;;28.50;58.20;;;;;;4998582;28;20204;-59
2023/09/08 11:38:16;;;;;;;8.55;7.55;;;28.60;57.90;;;;;;4997089;28;20200;-59
2023/09/08 11:40:42;;;;;;;12.32;7.07;;;28.70;57.00;;;;;;5002682;28;20759;-60
2023/09/08 11:43:08;;;;;;;8.10;7.10;;;28.80;56.10;;;;;;4995968;28;20196;-58
2023/09/08 11:45:37;;;;;;;10.50;7.53;;;28.90;56.20;;;;;;4997922;28;20196;-59
2023/09/08 11:48:04;;;;;;;8.68;7.03;;;29.00;56.90;;;;;;4998127;28;20199;-58
2023/09/08 11:50:31;;;;;;;7.90;6.82;;;29.10;57.00;;;;;;5001256;28;20173;-55
2023/09/08 11:52:59;;;;;;;9.02;7.15;;;29.20;54.80;;;;;;5001179;28;20192;-57
2023/09/08 11:55:25;;;;;;;8.70;6.93;;;29.20;55.30;;;;;;4996995;28;20179;-54
2023/09/08 11:58:02;;;;;;;8.23;6.82;;;29.30;56.30;;;;;;5000347;28;20283;-55
2023/09/08 12:00:28;;;;;;;9.27;7.63;;;29.40;55.40;;;;;;5008040;28;20260;-55
2023/09/08 12:02:54;;;;;;;11.25;7.13;;;29.60;55.10;;;;;;5001854;28;20246;-53
2023/09/08 12:05:27;;;;;;;7.75;6.85;;;29.80;55.10;;;;;;5003796;28;20684;-59
2023/09/08 12:07:54;;;;;;;8.32;6.45;;;30.00;55.30;;;;;;5003208;28;20222;-59
2023/09/08 12:10:21;;;;;;;11.13;7.13;;;30.10;53.70;;;;;;5000492;28;20701;-59
2023/09/08 12:12:54;;;;;;;11.13;6.38;;;30.20;53.70;;;;;;5002688;28;20235;-59
2023/09/08 12:15:34;;;;;;;9.32;6.38;;;30.40;53.90;;;;;;5006597;28;20176;-59
2023/09/08 12:18:01;;;;;;;11.32;6.72;;;30.50;54.00;;;;;;4999260;28;20330;-59
2023/09/08 12:20:28;;;;;;;11.50;5.85;;;30.70;54.20;;;;;;5001103;28;21011;-60
2023/09/08 12:22:53;;;;;;;7.82;6.68;;;30.80;53.50;;;;;;5003697;28;20182;-60
2023/09/08 12:25:19;;;;;;;7.90;7.00;;;30.90;53.40;;;;;;5001088;28;20182;-59
2023/09/08 12:27:49;;;;;;;12.05;6.80;;;31.10;53.10;;;;;;5008571;28;20207;-59
2023/09/08 12:30:19;;;;;;;7.38;6.68;;;31.30;53.70;;;;;;5007718;28;20180;-60
2023/09/08 12:32:48;;;;;;;9.88;6.72;;;31.40;52.40;;;;;;4998647;28;20641;-60
2023/09/08 12:35:22;;;;;;;9.20;6.38;;;31.50;52.20;;;;;;5000910;28;21932;-57